createdAt,value
2019-01-17T00:02:04.222Z,6.23
2019-01-17T00:05:00.497Z,5.90
2019-01-17T00:07:46.334Z,6.20
2019-01-17T00:10:46.194Z,5.40
2019-01-17T00:13:40.114Z,5.60
2019-01-17T00:16:21.173Z,5.30
2019-01-17T00:19:11.904Z,4.80
2019-01-17T00:21:52.358Z,4.90
2019-01-17T00:24:52.327Z,5.37
2019-01-17T00:27:43.312Z,5.17
2019-01-17T00:30:46.475Z,4.70
2019-01-17T00:33:37.266Z,5.20
2019-01-17T00:36:24.016Z,4.53
2019-01-17T00:39:03.357Z,5.10
2019-01-17T00:42:25.305Z,4.40
2019-01-17T00:52:26.680Z,4.23
2019-01-17T00:55:45.466Z,4.30
2019-01-17T00:58:46.571Z,4.50
2019-01-17T01:01:47.803Z,4.40
2019-01-17T01:16:06.815Z,3.80
2019-01-17T01:18:51.618Z,3.37
2019-01-17T01:21:43.979Z,5.00
2019-01-17T01:24:55.964Z,3.40
2019-01-17T01:27:44.334Z,3.77
2019-01-17T01:30:45.725Z,3.23
2019-01-17T01:40:59.722Z,3.40
2019-01-17T01:44:14.859Z,3.00
2019-01-17T01:46:59.202Z,2.90
2019-01-17T01:53:15.674Z,2.80
2019-01-17T01:55:47.118Z,3.00
2019-01-17T02:01:22.495Z,2.40
2019-01-17T02:11:22.302Z,2.40
2019-01-17T02:14:05.684Z,2.13
2019-01-17T02:17:02.730Z,1.97
2019-01-17T02:19:31.373Z,2.17
2019-01-17T02:22:20.896Z,1.70
2019-01-17T02:24:50.040Z,1.67
2019-01-17T02:27:19.233Z,1.43
2019-01-17T02:29:48.448Z,1.80
2019-01-17T02:32:17.609Z,1.73
2019-01-17T02:34:49.195Z,1.30
2019-01-17T02:37:18.385Z,1.40
2019-01-17T02:39:54.917Z,1.63
2019-01-17T02:42:24.188Z,1.57
2019-01-17T02:44:53.631Z,2.30
2019-01-17T02:47:27.316Z,2.50
2019-01-17T02:49:58.400Z,1.70
2019-01-17T02:52:27.463Z,1.77
2019-01-17T02:54:56.540Z,1.70
2019-01-17T02:57:27.253Z,1.67
2019-01-17T02:59:56.533Z,1.67
2019-01-17T03:02:25.678Z,1.90
2019-01-17T03:05:05.334Z,1.93
2019-01-17T03:07:32.127Z,1.73
2019-01-17T03:10:01.766Z,1.80
2019-01-17T03:12:31.232Z,1.97
2019-01-17T03:15:00.416Z,1.67
2019-01-17T03:17:38.798Z,1.53
2019-01-17T03:23:39.351Z,1.53
2019-01-17T03:26:20.842Z,1.80
2019-01-17T03:28:54.885Z,1.60
2019-01-17T03:31:24.243Z,1.50
2019-01-17T03:33:54.024Z,1.50
2019-01-17T03:36:23.330Z,1.67
2019-01-17T03:38:56.266Z,1.30
2019-01-17T03:41:33.757Z,1.60
2019-01-17T03:44:05.762Z,1.47
2019-01-17T03:46:39.917Z,1.47
2019-01-17T03:49:39.833Z,1.47
2019-01-17T03:56:07.545Z,1.20
2019-01-17T04:01:49.814Z,1.40
2019-01-17T04:08:33.959Z,1.17
2019-01-17T04:11:03.708Z,1.20
2019-01-17T04:13:47.786Z,1.00
2019-01-17T04:23:09.491Z,0.90
2019-01-17T04:43:40.372Z,0.73
2019-01-17T05:06:42.345Z,1.03
2019-01-17T05:12:50.517Z,0.90
2019-01-17T05:22:34.911Z,1.97
2019-01-17T05:28:18.015Z,0.93
2019-01-17T05:31:15.485Z,19.37
2019-01-17T05:34:54.064Z,1.43
2019-01-17T05:48:29.629Z,0.80
2019-01-17T05:51:46.760Z,0.70
2019-01-17T05:58:12.586Z,0.67
2019-01-17T06:10:25.504Z,5.60
2019-01-17T06:16:57.578Z,1.80
2019-01-17T06:20:45.986Z,1.00
2019-01-17T06:41:10.211Z,1.00
2019-01-17T06:43:39.050Z,0.90
2019-01-17T06:46:08.036Z,1.00
2019-01-17T06:48:36.913Z,0.90
2019-01-17T06:51:05.920Z,1.00
2019-01-17T06:53:34.937Z,1.07
2019-01-17T06:56:04.012Z,1.17
2019-01-17T06:58:32.924Z,3.90
2019-01-17T07:01:01.946Z,1.70
2019-01-17T07:03:30.881Z,1.47
2019-01-17T07:05:59.902Z,1.13
2019-01-17T07:08:28.846Z,3.43
2019-01-17T07:10:57.691Z,4.07
2019-01-17T07:13:26.655Z,1.60
2019-01-17T07:15:55.842Z,1.50
2019-01-17T07:18:24.841Z,1.20
2019-01-17T07:20:53.746Z,1.10
2019-01-17T07:23:22.874Z,1.60
2019-01-17T07:25:52.187Z,1.80
2019-01-17T07:28:21.347Z,1.50
2019-01-17T07:30:50.302Z,1.43
2019-01-17T07:33:19.303Z,1.10
2019-01-17T07:35:48.511Z,1.10
2019-01-17T07:38:17.418Z,1.23
2019-01-17T07:40:46.370Z,1.10
2019-01-17T07:43:15.627Z,1.30
2019-01-17T07:45:44.593Z,0.93
2019-01-17T07:48:13.438Z,1.00
2019-01-17T07:50:42.354Z,1.17
2019-01-17T07:53:11.372Z,0.97
2019-01-17T07:55:40.337Z,1.50
2019-01-17T07:58:09.403Z,1.50
2019-01-17T08:00:38.467Z,0.90
2019-01-17T08:03:07.442Z,1.10
2019-01-17T08:05:36.367Z,1.10
2019-01-17T08:08:05.349Z,2.10
2019-01-17T08:10:34.598Z,2.93
2019-01-17T08:13:03.609Z,3.07
2019-01-17T08:15:32.675Z,2.00
2019-01-17T08:18:01.537Z,1.37
2019-01-17T08:20:30.466Z,1.43
2019-01-17T08:22:59.582Z,1.40
2019-01-17T08:25:28.534Z,1.40
2019-01-17T08:27:57.618Z,1.90
2019-01-17T08:30:27.790Z,1.97
2019-01-17T08:32:56.867Z,1.40
2019-01-17T08:35:26.050Z,1.50
2019-01-17T08:37:55.011Z,1.90
2019-01-17T08:40:26.566Z,2.23
2019-01-17T08:42:55.790Z,1.77
2019-01-17T08:45:24.818Z,1.70
2019-01-17T08:47:53.835Z,2.60
2019-01-17T08:50:22.897Z,2.40
2019-01-17T08:52:51.858Z,2.00
2019-01-17T08:55:20.785Z,1.90
2019-01-17T08:57:49.729Z,2.10
2019-01-17T09:00:20.112Z,1.63
2019-01-17T09:02:49.126Z,1.60
2019-01-17T09:05:18.170Z,1.53
2019-01-17T09:07:47.257Z,1.90
2019-01-17T09:10:18.966Z,1.73
2019-01-17T09:12:47.877Z,1.63
2019-01-17T09:15:18.347Z,1.33
2019-01-17T09:17:47.662Z,1.70
2019-01-17T09:20:16.655Z,1.60
2019-01-17T09:22:45.685Z,1.70
2019-01-17T09:25:15.343Z,1.30
2019-01-17T09:27:44.333Z,1.90
2019-01-17T09:30:15.561Z,0.93
2019-01-17T09:32:44.533Z,1.53
2019-01-17T09:35:14.042Z,1.10
2019-01-17T09:37:43.449Z,1.60
2019-01-17T09:40:15.152Z,1.60
2019-01-17T09:42:44.162Z,2.13
2019-01-17T09:45:13.766Z,1.37
2019-01-17T09:47:43.034Z,1.50
2019-01-17T09:50:14.814Z,1.30
2019-01-17T09:52:44.056Z,1.30
2019-01-17T09:55:13.174Z,1.13
2019-01-17T09:57:42.067Z,1.20
2019-01-17T10:00:14.575Z,1.30
2019-01-17T10:02:43.798Z,1.10
2019-01-17T10:05:12.798Z,1.20
2019-01-17T10:07:41.802Z,1.30
2019-01-17T10:10:13.335Z,1.37
2019-01-17T10:12:42.299Z,1.27
2019-01-17T10:15:14.993Z,1.17
2019-01-17T10:18:24.805Z,1.10
2019-01-17T10:21:08.477Z,1.70
2019-01-17T10:24:12.801Z,1.30
2019-01-17T10:26:49.774Z,1.30
2019-01-17T10:29:35.597Z,1.27
2019-01-17T10:32:26.621Z,1.43
2019-01-17T10:35:31.854Z,2.03
2019-01-17T10:38:25.222Z,1.93
2019-01-17T10:41:13.790Z,1.93
2019-01-17T10:43:58.390Z,1.87
2019-01-17T10:47:05.710Z,1.70
2019-01-17T10:50:26.523Z,1.70
2019-01-17T10:53:39.075Z,1.13
2019-01-17T10:56:41.283Z,1.10
2019-01-17T10:59:13.867Z,0.80
2019-01-17T11:02:12.690Z,0.90
2019-01-17T11:05:22.555Z,1.40
2019-01-17T11:08:41.810Z,1.00
2019-01-17T11:12:00.981Z,0.90
2019-01-17T11:14:49.194Z,0.80
2019-01-17T11:18:05.342Z,1.10
2019-01-17T11:21:22.857Z,1.03
2019-01-17T11:24:24.455Z,0.80
2019-01-17T11:27:28.114Z,0.63
2019-01-17T11:30:28.070Z,0.40
2019-01-17T11:33:37.801Z,0.50
2019-01-17T11:36:16.811Z,0.73
2019-01-17T11:39:09.765Z,0.60
2019-01-17T11:42:37.921Z,0.60
2019-01-17T11:45:46.898Z,0.60
2019-01-17T11:49:09.154Z,0.60
2019-01-17T11:52:07.857Z,0.77
2019-01-17T11:54:54.065Z,0.60
2019-01-17T11:58:01.346Z,0.40
2019-01-17T12:01:16.133Z,0.60
2019-01-17T12:04:19.194Z,0.30
2019-01-17T12:06:48.043Z,0.40
2019-01-17T12:09:17.051Z,0.33
2019-01-17T12:11:46.133Z,0.87
2019-01-17T12:14:15.116Z,0.30
2019-01-17T12:16:44.086Z,0.47
2019-01-17T12:19:12.973Z,0.30
2019-01-17T12:21:41.881Z,0.50
2019-01-17T12:24:10.901Z,0.60
2019-01-17T12:26:39.806Z,0.50
2019-01-17T12:29:08.723Z,0.33
2019-01-17T12:31:37.673Z,0.50
2019-01-17T12:34:06.694Z,0.60
2019-01-17T12:36:35.689Z,0.90
2019-01-17T12:39:08.006Z,0.90
2019-01-17T12:41:37.455Z,0.70
2019-01-17T12:44:06.908Z,0.67
2019-01-17T12:46:36.155Z,0.80
2019-01-17T12:49:05.417Z,1.07
2019-01-17T12:51:34.619Z,1.00
2019-01-17T12:54:05.212Z,0.90
2019-01-17T12:56:34.446Z,1.10
2019-01-17T12:59:04.092Z,1.00
2019-01-17T13:01:33.218Z,0.83
2019-01-17T13:04:02.318Z,1.13
2019-01-17T13:06:31.379Z,1.53
2019-01-17T13:09:00.386Z,1.90
2019-01-17T13:11:29.371Z,1.90
2019-01-17T13:13:58.968Z,1.60
2019-01-17T13:16:28.237Z,1.03
2019-01-17T13:18:57.363Z,1.20
2019-01-17T13:21:26.505Z,1.43
2019-01-17T13:23:55.730Z,1.63
2019-01-17T13:26:24.973Z,1.20
2019-01-17T13:28:54.066Z,1.60
2019-01-17T13:31:23.221Z,1.50
2019-01-17T13:33:54.606Z,2.23
2019-01-17T13:36:23.226Z,2.30
2019-01-17T13:38:52.233Z,2.80
2019-01-17T13:41:21.407Z,3.00
2019-01-17T13:43:50.660Z,2.57
2019-01-17T13:46:21.489Z,2.60
2019-01-17T13:48:50.534Z,2.30
2019-01-17T13:51:19.851Z,2.07
2019-01-17T13:53:49.096Z,2.10
2019-01-17T13:56:18.160Z,2.40
2019-01-17T13:58:47.341Z,2.20
2019-01-17T14:01:16.428Z,2.60
2019-01-17T14:03:45.673Z,2.77
2019-01-17T14:06:14.877Z,3.30
2019-01-17T14:08:44.078Z,3.10
2019-01-17T14:11:13.444Z,2.90
2019-01-17T14:13:44.167Z,3.50
2019-01-17T14:16:13.218Z,4.00
2019-01-17T14:18:42.296Z,4.33
2019-01-17T14:21:11.602Z,5.57
2019-01-17T14:23:40.868Z,5.53
2019-01-17T14:26:10.267Z,5.50
2019-01-17T14:28:39.552Z,4.77
2019-01-17T14:31:08.774Z,4.53
2019-01-17T14:33:37.819Z,5.30
2019-01-17T14:36:10.501Z,5.17
2019-01-17T14:38:39.807Z,4.90
2019-01-17T14:41:09.257Z,4.23
2019-01-17T14:43:38.413Z,4.43
2019-01-17T14:46:07.738Z,4.23
2019-01-17T14:48:36.769Z,3.77
2019-01-17T14:51:05.847Z,4.03
2019-01-17T14:53:49.210Z,3.00
2019-01-17T14:56:21.594Z,2.70
2019-01-17T14:58:55.221Z,2.40
2019-01-17T15:01:24.541Z,2.87
2019-01-17T15:03:53.828Z,3.13
2019-01-17T15:06:23.030Z,2.83
2019-01-17T15:09:01.230Z,3.17
2019-01-17T15:11:30.457Z,3.47
2019-01-17T15:13:59.968Z,3.90
2019-01-17T15:16:29.124Z,3.63
2019-01-17T15:18:58.208Z,3.40
2019-01-17T15:21:27.894Z,3.50
2019-01-17T15:23:57.116Z,3.57
2019-01-17T15:26:32.108Z,2.87
2019-01-17T15:29:01.264Z,2.87
2019-01-17T15:31:30.388Z,3.17
2019-01-17T15:33:59.783Z,2.80
2019-01-17T15:36:28.955Z,2.70
2019-01-17T15:38:59.561Z,4.60
2019-01-17T15:41:33.339Z,2.63
2019-01-17T15:44:04.182Z,2.20
2019-01-17T15:46:37.212Z,1.97
2019-01-17T15:49:06.956Z,2.07
2019-01-17T15:51:38.112Z,1.20
2019-01-17T15:54:07.404Z,1.17
2019-01-17T15:56:40.226Z,1.70
2019-01-17T15:59:11.051Z,2.10
2019-01-17T16:01:40.376Z,2.07
2019-01-17T16:04:27.481Z,2.53
2019-01-17T16:06:56.943Z,2.50
2019-01-17T16:09:26.249Z,2.00
2019-01-17T16:11:55.352Z,1.87
2019-01-17T16:14:39.654Z,1.93
2019-01-17T16:17:15.120Z,1.30
2019-01-17T16:19:44.303Z,1.33
2019-01-17T16:22:13.921Z,1.20
2019-01-17T16:24:43.732Z,1.50
2019-01-17T16:27:18.395Z,1.10
2019-01-17T16:30:05.218Z,1.40
2019-01-17T16:36:15.471Z,3.07
2019-01-17T16:39:00.035Z,3.77
2019-01-17T16:41:52.717Z,2.00
2019-01-17T16:44:22.143Z,2.53
2019-01-17T16:46:57.384Z,2.73
2019-01-17T16:49:43.930Z,2.30
2019-01-17T16:52:19.455Z,2.00
2019-01-17T16:55:11.637Z,2.20
2019-01-17T16:57:49.868Z,2.67
2019-01-17T17:00:33.107Z,2.57
2019-01-17T17:03:02.276Z,3.30
2019-01-17T17:05:31.694Z,3.10
2019-01-17T17:08:05.958Z,3.10
2019-01-17T17:10:41.082Z,2.37
2019-01-17T17:16:04.990Z,3.00
2019-01-17T17:18:40.316Z,4.40
2019-01-17T17:24:33.203Z,2.60
2019-01-17T17:27:04.146Z,2.97
2019-01-17T17:29:48.590Z,2.90
2019-01-17T17:32:38.521Z,2.60
2019-01-17T17:38:29.185Z,2.60
2019-01-17T17:41:14.930Z,2.17
2019-01-17T17:44:02.812Z,2.60
2019-01-17T17:49:38.743Z,2.57
2019-01-17T17:52:08.046Z,2.70
2019-01-17T17:54:49.456Z,2.93
2019-01-17T18:00:56.262Z,2.20
2019-01-17T18:04:01.337Z,3.00
2019-01-17T18:06:30.467Z,2.73
2019-01-17T18:09:03.298Z,2.83
2019-01-17T18:11:32.661Z,2.87
2019-01-17T18:14:07.623Z,2.70
2019-01-17T18:16:39.744Z,3.00
2019-01-17T18:19:09.266Z,3.00
2019-01-17T18:21:38.465Z,3.20
2019-01-17T18:24:10.465Z,7.77
2019-01-17T18:26:43.039Z,4.40
2019-01-17T18:29:12.564Z,3.50
2019-01-17T18:31:57.162Z,3.20
2019-01-17T18:34:46.371Z,3.37
2019-01-17T18:37:17.207Z,2.77
2019-01-17T18:39:47.180Z,2.87
2019-01-17T18:43:24.732Z,3.17
2019-01-17T18:45:54.022Z,2.97
2019-01-17T18:54:53.262Z,3.43
2019-01-17T18:57:41.428Z,3.30
2019-01-17T19:01:05.953Z,3.07
2019-01-17T19:03:36.996Z,3.10
2019-01-17T19:06:14.663Z,3.07
2019-01-17T19:09:10.509Z,3.47
2019-01-17T19:11:39.688Z,2.90
2019-01-17T19:14:09.334Z,3.50
2019-01-17T19:16:41.870Z,2.50
2019-01-17T19:19:13.322Z,3.60
2019-01-17T19:21:53.006Z,3.60
2019-01-17T19:24:23.888Z,3.90
2019-01-17T19:27:15.454Z,4.60
2019-01-17T19:29:47.898Z,5.57
2019-01-17T19:32:23.595Z,4.53
2019-01-17T19:34:52.886Z,4.50
2019-01-17T19:37:38.027Z,3.73
2019-01-17T19:40:12.463Z,4.97
2019-01-17T19:42:42.838Z,4.27
2019-01-17T19:45:16.379Z,4.97
2019-01-17T19:47:48.754Z,4.77
2019-01-17T19:50:20.946Z,5.13
2019-01-17T19:52:50.377Z,6.90
2019-01-17T19:55:19.555Z,7.73
2019-01-17T19:57:53.736Z,7.83
2019-01-17T20:00:26.265Z,7.47
2019-01-17T20:03:06.779Z,6.43
2019-01-17T20:05:36.214Z,6.87
2019-01-17T20:08:29.816Z,6.97
2019-01-17T20:10:59.202Z,6.23
2019-01-17T20:13:29.176Z,6.23
2019-01-17T20:15:58.588Z,5.97
2019-01-17T20:18:27.752Z,5.57
2019-01-17T20:21:01.418Z,5.03
2019-01-17T20:23:34.921Z,5.33
2019-01-17T20:26:01.646Z,5.57
2019-01-17T20:28:35.809Z,7.43
2019-01-17T20:31:28.038Z,7.13
2019-01-17T20:33:57.438Z,6.87
2019-01-17T20:36:26.639Z,6.80
2019-01-17T20:38:55.982Z,6.27
2019-01-17T20:41:32.854Z,7.00
2019-01-17T20:44:04.113Z,10.10
2019-01-17T20:46:33.295Z,7.17
2019-01-17T20:49:02.421Z,7.53
2019-01-17T20:51:34.603Z,7.73
2019-01-17T20:54:07.210Z,7.63
2019-01-17T20:56:50.352Z,8.03
2019-01-17T20:59:21.255Z,8.40
2019-01-17T21:02:13.219Z,8.27
2019-01-17T21:04:43.573Z,7.83
2019-01-17T21:07:13.128Z,8.23
2019-01-17T21:09:45.451Z,9.47
2019-01-17T21:12:14.836Z,9.27
2019-01-17T21:14:44.156Z,8.63
2019-01-17T21:17:17.962Z,10.10
2019-01-17T21:19:44.566Z,9.43
2019-01-17T21:22:13.951Z,10.33
2019-01-17T21:27:49.978Z,9.93
2019-01-17T21:30:40.764Z,9.70
2019-01-17T21:33:25.788Z,10.27
2019-01-17T21:36:02.292Z,11.77
2019-01-17T21:38:40.742Z,9.60
2019-01-17T21:41:09.858Z,10.20
2019-01-17T21:43:39.223Z,9.90
2019-01-17T21:46:11.648Z,10.53
2019-01-17T21:48:40.891Z,11.53
2019-01-17T21:51:10.495Z,11.50
2019-01-17T21:53:42.996Z,10.83
2019-01-17T21:56:15.649Z,12.10
2019-01-17T21:58:45.087Z,10.67
2019-01-17T22:01:17.277Z,10.33
2019-01-17T22:03:53.033Z,10.00
2019-01-17T22:06:26.379Z,10.27
2019-01-17T22:09:07.128Z,9.37
2019-01-17T22:11:57.766Z,8.13
2019-01-17T22:14:29.333Z,8.60
2019-01-17T22:17:15.505Z,7.90
2019-01-17T22:20:22.905Z,6.77
2019-01-17T22:23:03.156Z,7.27
2019-01-17T22:25:47.091Z,6.37
2019-01-17T22:28:25.513Z,6.23
2019-01-17T22:31:00.095Z,5.57
2019-01-17T22:33:33.360Z,5.93
2019-01-17T22:36:05.184Z,5.80
2019-01-17T22:38:34.592Z,5.80
2019-01-17T22:41:03.755Z,5.93
2019-01-17T22:43:32.830Z,7.00
2019-01-17T22:46:01.887Z,8.27
2019-01-17T22:48:30.814Z,8.77
2019-01-17T22:51:00.101Z,8.70
2019-01-17T22:53:29.007Z,9.03
2019-01-17T22:55:57.878Z,8.43
2019-01-17T22:58:26.716Z,9.73
2019-01-17T23:01:13.364Z,8.97
2019-01-17T23:03:44.535Z,8.00
2019-01-17T23:06:13.644Z,9.03
2019-01-17T23:08:42.668Z,7.47
2019-01-17T23:11:11.772Z,8.77
2019-01-17T23:13:40.673Z,8.63
2019-01-17T23:16:09.706Z,9.00
2019-01-17T23:18:38.750Z,7.17
2019-01-17T23:21:07.709Z,7.67
2019-01-17T23:23:36.555Z,7.90
2019-01-17T23:26:05.762Z,6.47
2019-01-17T23:28:34.745Z,7.47
2019-01-17T23:31:03.954Z,7.93
2019-01-17T23:33:32.979Z,8.67
2019-01-17T23:36:01.837Z,7.23
2019-01-17T23:38:30.751Z,7.33
2019-01-17T23:40:59.633Z,7.73
2019-01-17T23:43:28.525Z,7.90
2019-01-17T23:45:57.497Z,7.30
2019-01-17T23:48:26.343Z,7.23
2019-01-17T23:50:55.287Z,8.37
2019-01-17T23:53:24.613Z,7.30
2019-01-17T23:55:53.550Z,6.70
2019-01-17T23:58:22.436Z,7.80
